createdAt,value
2022-12-13T00:01:56.001Z,4.52
2022-12-13T00:04:25.329Z,4.54
2022-12-13T00:06:54.111Z,4.47
2022-12-13T00:09:21.602Z,4.27
2022-12-13T00:11:49.438Z,4.25
2022-12-13T00:14:19.545Z,4.37
2022-12-13T00:16:49.119Z,4.09
2022-12-13T00:19:17.000Z,4.38
2022-12-13T00:21:43.968Z,4.46
2022-12-13T00:24:10.773Z,4.33
2022-12-13T00:26:37.434Z,4.48
2022-12-13T00:29:07.185Z,4.35
2022-12-13T00:34:21.215Z,4.41
2022-12-13T00:36:48.528Z,4.63
2022-12-13T00:39:16.726Z,4.66
2022-12-13T00:41:44.980Z,4.52
2022-12-13T00:44:12.919Z,4.65
2022-12-13T00:46:40.997Z,4.70
2022-12-13T00:49:07.809Z,4.60
2022-12-13T00:51:35.003Z,4.69
2022-12-13T00:54:02.523Z,4.52
2022-12-13T00:56:31.969Z,4.79
2022-12-13T00:58:59.043Z,4.55
2022-12-13T01:01:29.645Z,4.61
2022-12-13T01:03:58.946Z,4.90
2022-12-13T01:06:34.464Z,4.88
2022-12-13T01:09:02.261Z,4.73
2022-12-13T01:11:29.123Z,4.57
2022-12-13T01:13:55.734Z,4.53
2022-12-13T01:16:22.436Z,4.39
2022-12-13T01:18:50.245Z,4.54
2022-12-13T01:21:20.824Z,4.58
2022-12-13T01:23:49.121Z,4.67
2022-12-13T01:26:18.463Z,5.02
2022-12-13T01:28:45.306Z,4.80
2022-12-13T01:31:16.412Z,4.88
2022-12-13T01:33:43.338Z,4.75
2022-12-13T01:36:14.250Z,5.08
2022-12-13T01:38:41.309Z,4.84
2022-12-13T01:41:09.012Z,4.70
2022-12-13T01:43:44.523Z,5.06
2022-12-13T01:46:12.365Z,5.10
2022-12-13T01:48:57.713Z,5.11
2022-12-13T01:51:39.847Z,5.11
2022-12-13T01:54:11.294Z,4.98
2022-12-13T01:56:45.249Z,5.07
2022-12-13T01:59:17.056Z,5.02
2022-12-13T02:01:44.064Z,5.06
2022-12-13T02:04:10.713Z,4.81
2022-12-13T02:06:42.098Z,5.19
2022-12-13T02:09:10.664Z,5.04
2022-12-13T02:11:41.027Z,5.26
2022-12-13T02:14:09.916Z,4.98
2022-12-13T02:16:43.450Z,5.17
2022-12-13T02:19:40.744Z,5.08
2022-12-13T02:22:19.641Z,5.10
2022-12-13T02:25:13.496Z,5.06
2022-12-13T02:27:47.008Z,4.92
2022-12-13T02:30:36.919Z,4.79
2022-12-13T02:33:06.717Z,5.01
2022-12-13T02:36:01.532Z,4.73
2022-12-13T02:38:50.058Z,4.84
2022-12-13T02:41:21.017Z,4.75
2022-12-13T02:44:01.038Z,4.60
2022-12-13T02:46:32.849Z,4.86
2022-12-13T02:49:00.958Z,4.65
2022-12-13T02:51:28.980Z,4.95
2022-12-13T02:53:55.929Z,4.87
2022-12-13T02:56:22.925Z,4.67
2022-12-13T02:58:53.429Z,4.49
2022-12-13T03:01:40.834Z,4.53
2022-12-13T03:04:26.603Z,4.46
2022-12-13T03:07:04.644Z,4.53
2022-12-13T03:09:37.474Z,4.50
2022-12-13T03:12:31.667Z,4.40
2022-12-13T03:15:12.554Z,4.24
2022-12-13T03:18:15.684Z,4.12
2022-12-13T03:20:51.352Z,4.12
2022-12-13T03:23:19.903Z,4.27
2022-12-13T03:25:49.288Z,4.22
2022-12-13T03:28:16.025Z,3.97
2022-12-13T03:30:42.856Z,4.06
2022-12-13T03:33:09.485Z,4.00
2022-12-13T03:35:44.346Z,4.01
2022-12-13T03:38:22.654Z,4.04
2022-12-13T03:40:53.695Z,3.95
2022-12-13T03:43:22.292Z,3.84
2022-12-13T03:45:50.415Z,3.86
2022-12-13T03:48:21.958Z,3.75
2022-12-13T03:50:50.888Z,3.91
2022-12-13T03:53:22.338Z,3.71
2022-12-13T03:56:00.963Z,3.54
2022-12-13T03:58:36.524Z,3.68
2022-12-13T04:01:16.232Z,3.65
2022-12-13T04:03:44.609Z,3.34
2022-12-13T04:06:12.347Z,3.44
2022-12-13T04:08:39.952Z,3.46
2022-12-13T04:11:26.330Z,3.57
2022-12-13T04:13:54.452Z,3.35
2022-12-13T04:16:21.913Z,3.09
2022-12-13T04:18:48.685Z,3.19
2022-12-13T04:21:15.822Z,3.41
2022-12-13T04:23:42.529Z,3.20
2022-12-13T04:26:09.152Z,3.23
2022-12-13T04:28:36.013Z,3.05
2022-12-13T04:31:02.868Z,3.28
2022-12-13T04:33:33.171Z,3.38
2022-12-13T04:35:59.960Z,3.15
2022-12-13T04:38:26.757Z,3.10
2022-12-13T04:40:53.481Z,3.37
2022-12-13T04:43:20.057Z,3.15
2022-12-13T04:45:46.719Z,3.24
2022-12-13T04:48:30.415Z,3.40
2022-12-13T04:51:00.965Z,3.40
2022-12-13T04:53:29.453Z,3.06
2022-12-13T04:55:56.392Z,3.11
2022-12-13T04:58:23.322Z,3.40
2022-12-13T05:00:50.044Z,3.11
2022-12-13T05:03:17.966Z,3.35
2022-12-13T05:05:44.663Z,3.29
2022-12-13T05:08:11.555Z,3.05
2022-12-13T05:10:38.369Z,2.86
2022-12-13T05:13:06.043Z,3.27
2022-12-13T05:15:33.138Z,3.03
2022-12-13T05:18:09.841Z,3.24
2022-12-13T05:20:39.436Z,3.05
2022-12-13T05:23:06.223Z,3.09
2022-12-13T05:25:33.149Z,3.11
2022-12-13T05:27:59.764Z,2.99
2022-12-13T05:30:26.459Z,2.89
2022-12-13T05:32:53.131Z,3.20
2022-12-13T05:35:23.496Z,3.35
2022-12-13T05:37:53.950Z,3.29
2022-12-13T05:40:25.780Z,3.17
2022-12-13T05:43:01.215Z,2.96
2022-12-13T05:45:30.130Z,3.17
2022-12-13T05:47:56.917Z,3.07
2022-12-13T05:50:24.527Z,3.02
2022-12-13T05:52:51.498Z,3.09
2022-12-13T05:55:18.547Z,3.00
2022-12-13T05:57:50.772Z,3.04
2022-12-13T06:00:30.387Z,3.35
2022-12-13T06:03:00.848Z,3.24
2022-12-13T06:05:28.508Z,3.25
2022-12-13T06:07:57.525Z,3.16
2022-12-13T06:10:24.893Z,3.19
2022-12-13T06:13:01.580Z,3.37
2022-12-13T06:15:34.834Z,3.10
2022-12-13T06:18:02.011Z,3.29
2022-12-13T06:20:28.705Z,2.99
2022-12-13T06:22:55.375Z,3.15
2022-12-13T06:25:31.365Z,2.96
2022-12-13T06:28:00.781Z,3.10
2022-12-13T06:30:32.035Z,3.09
2022-12-13T06:33:00.033Z,3.09
2022-12-13T06:35:29.015Z,3.13
2022-12-13T06:38:01.124Z,2.94
2022-12-13T06:40:30.615Z,3.44
2022-12-13T06:42:57.866Z,3.44
2022-12-13T06:45:25.259Z,3.68
2022-12-13T06:47:52.026Z,3.75
2022-12-13T06:50:18.895Z,3.66
2022-12-13T06:52:48.447Z,3.66
2022-12-13T06:55:23.527Z,3.84
2022-12-13T06:57:52.313Z,3.86
2022-12-13T07:00:22.356Z,3.70
2022-12-13T07:02:56.972Z,3.84
2022-12-13T07:05:25.270Z,3.81
2022-12-13T07:07:52.202Z,3.58
2022-12-13T07:10:22.591Z,3.22
2022-12-13T07:12:49.970Z,3.53
2022-12-13T07:15:16.745Z,3.65
2022-12-13T07:17:43.944Z,3.65
2022-12-13T07:20:11.419Z,3.43
2022-12-13T07:22:44.924Z,3.66
2022-12-13T07:25:27.524Z,3.75
2022-12-13T07:28:01.711Z,3.86
2022-12-13T07:30:31.070Z,3.86
2022-12-13T07:32:58.292Z,3.92
2022-12-13T07:35:25.021Z,4.05
2022-12-13T07:37:51.670Z,3.89
2022-12-13T07:40:18.557Z,4.19
2022-12-13T07:42:56.570Z,4.30
2022-12-13T07:45:24.045Z,4.38
2022-12-13T07:47:52.014Z,4.33
2022-12-13T07:50:24.013Z,4.63
2022-12-13T07:52:51.981Z,4.42
2022-12-13T07:55:18.911Z,4.35
2022-12-13T07:57:50.073Z,4.13
2022-12-13T08:00:17.304Z,4.06
2022-12-13T08:02:43.968Z,4.17
2022-12-13T08:05:27.132Z,4.24
2022-12-13T08:07:54.261Z,4.19
2022-12-13T08:10:21.035Z,4.39
2022-12-13T08:12:47.702Z,4.27
2022-12-13T08:15:14.545Z,4.07
2022-12-13T08:17:43.259Z,4.02
2022-12-13T08:20:10.214Z,4.19
2022-12-13T08:22:37.037Z,4.28
2022-12-13T08:25:04.258Z,4.35
2022-12-13T08:27:30.954Z,4.60
2022-12-13T08:29:57.596Z,4.90
2022-12-13T08:32:26.130Z,5.07
2022-12-13T08:34:52.928Z,4.84
2022-12-13T08:37:19.595Z,4.64
2022-12-13T08:39:46.251Z,4.26
2022-12-13T08:42:19.000Z,4.70
2022-12-13T08:45:06.978Z,4.90
2022-12-13T08:47:36.885Z,5.01
2022-12-13T08:50:08.147Z,4.90
2022-12-13T08:52:39.300Z,5.04
2022-12-13T08:55:08.230Z,5.17
2022-12-13T08:57:36.882Z,5.00
2022-12-13T09:00:05.882Z,4.84
2022-12-13T09:02:37.744Z,5.07
2022-12-13T09:05:07.630Z,5.31
2022-12-13T09:07:41.105Z,5.52
2022-12-13T09:10:25.613Z,5.76
2022-12-13T09:13:01.400Z,5.90
2022-12-13T09:15:34.513Z,6.02
2022-12-13T09:18:05.090Z,6.46
2022-12-13T09:20:32.857Z,6.13
2022-12-13T09:23:08.482Z,5.85
2022-12-13T09:25:41.111Z,5.85
2022-12-13T09:28:09.312Z,5.85
2022-12-13T09:30:38.416Z,5.93
2022-12-13T09:33:28.357Z,5.76
2022-12-13T09:35:52.367Z,5.95
2022-12-13T09:38:19.083Z,5.78
2022-12-13T09:40:49.191Z,5.65
2022-12-13T09:43:32.051Z,6.03
2022-12-13T09:46:13.260Z,6.13
2022-12-13T09:48:52.021Z,6.40
2022-12-13T09:51:28.681Z,6.98
2022-12-13T09:53:57.897Z,7.20
2022-12-13T09:56:24.712Z,7.75
2022-12-13T09:58:56.799Z,8.98
2022-12-13T10:01:24.134Z,8.77
2022-12-13T10:03:54.577Z,8.91
2022-12-13T10:06:24.428Z,9.32
2022-12-13T10:08:57.901Z,9.83
2022-12-13T10:11:31.750Z,9.99
2022-12-13T10:14:21.461Z,9.54
2022-12-13T10:16:55.281Z,8.49
2022-12-13T10:19:28.169Z,8.33
2022-12-13T10:22:01.259Z,8.77
2022-12-13T10:25:00.491Z,9.94
2022-12-13T10:27:36.839Z,10.49
2022-12-13T10:30:07.077Z,10.99
2022-12-13T10:32:56.935Z,11.25
2022-12-13T10:35:38.629Z,12.64
2022-12-13T10:38:08.374Z,12.61
2022-12-13T10:40:37.782Z,13.47
2022-12-13T10:43:11.250Z,13.95
2022-12-13T10:45:38.362Z,13.89
2022-12-13T10:48:06.293Z,14.35
2022-12-13T10:50:33.319Z,15.88
2022-12-13T10:53:00.953Z,17.40
2022-12-13T10:55:33.962Z,18.01
2022-12-13T10:58:10.185Z,18.45
2022-12-13T11:00:47.664Z,18.99
2022-12-13T11:03:30.144Z,18.01
2022-12-13T11:06:06.976Z,17.96
2022-12-13T11:08:34.004Z,16.26
2022-12-13T11:11:06.964Z,15.98
2022-12-13T11:13:47.145Z,16.32
2022-12-13T11:16:28.014Z,18.22
2022-12-13T11:18:58.312Z,18.62
2022-12-13T11:21:30.127Z,18.70
2022-12-13T11:24:01.537Z,18.98
2022-12-13T11:26:31.204Z,19.11
2022-12-13T11:29:16.679Z,18.04
2022-12-13T11:32:04.447Z,15.50
2022-12-13T11:34:39.908Z,13.22
2022-12-13T11:37:24.863Z,11.50
2022-12-13T11:40:14.523Z,10.30
2022-12-13T11:43:12.208Z,8.92
2022-12-13T11:45:51.287Z,8.26
2022-12-13T11:48:25.679Z,7.73
2022-12-13T11:50:56.632Z,7.77
2022-12-13T11:53:47.408Z,7.89
2022-12-13T11:56:24.048Z,7.70
2022-12-13T11:59:07.109Z,7.74
2022-12-13T12:01:43.143Z,7.71
2022-12-13T12:04:35.520Z,7.55
2022-12-13T12:07:31.258Z,7.23
2022-12-13T12:09:59.001Z,6.96
2022-12-13T12:12:37.358Z,7.18
2022-12-13T12:15:15.178Z,7.37
2022-12-13T12:17:44.125Z,7.78
2022-12-13T12:20:23.884Z,8.04
2022-12-13T12:23:04.970Z,8.20
2022-12-13T12:26:13.585Z,9.30
2022-12-13T12:29:11.963Z,9.10
2022-12-13T12:32:00.148Z,10.85
2022-12-13T12:34:38.374Z,12.09
2022-12-13T12:37:26.038Z,13.11
2022-12-13T12:41:07.129Z,13.52
2022-12-13T12:43:27.243Z,14.00
2022-12-13T12:46:12.592Z,14.45
2022-12-13T12:49:10.869Z,14.48
2022-12-13T12:51:53.132Z,15.68
2022-12-13T12:54:38.735Z,15.60
2022-12-13T12:57:30.953Z,13.94
2022-12-13T13:00:12.442Z,13.50
2022-12-13T13:03:18.825Z,13.66
2022-12-13T13:06:02.922Z,13.92
2022-12-13T13:09:05.208Z,15.15
2022-12-13T13:11:42.780Z,14.87
2022-12-13T13:14:32.908Z,14.69
2022-12-13T13:17:20.564Z,14.85
2022-12-13T13:19:49.280Z,14.31
2022-12-13T13:22:33.808Z,13.66
2022-12-13T13:25:06.459Z,14.28
2022-12-13T13:27:44.676Z,13.36
2022-12-13T13:30:27.058Z,12.99
2022-12-13T13:33:00.221Z,10.93
2022-12-13T13:35:33.126Z,9.46
2022-12-13T13:38:04.759Z,8.52
2022-12-13T13:40:34.450Z,8.33
2022-12-13T13:43:10.316Z,8.18
2022-12-13T13:45:52.364Z,8.04
2022-12-13T13:48:40.885Z,7.73
2022-12-13T13:51:54.971Z,7.29
2022-12-13T13:55:05.162Z,6.98
2022-12-13T13:58:12.283Z,6.69
2022-12-13T14:00:47.993Z,6.67
2022-12-13T14:04:05.875Z,6.49
2022-12-13T14:06:51.318Z,6.21
2022-12-13T14:09:23.834Z,6.01
2022-12-13T14:12:11.190Z,5.60
2022-12-13T14:15:08.531Z,5.54
2022-12-13T14:18:06.888Z,5.18
2022-12-13T14:20:45.196Z,5.28
2022-12-13T14:23:33.870Z,5.29
2022-12-13T14:26:18.192Z,5.20
2022-12-13T14:28:57.004Z,4.91
2022-12-13T14:31:28.678Z,4.95
2022-12-13T14:33:58.060Z,4.96
2022-12-13T14:36:32.434Z,4.87
2022-12-13T14:39:01.555Z,4.75
2022-12-13T14:41:28.694Z,5.03
2022-12-13T14:43:57.918Z,4.82
2022-12-13T14:46:24.846Z,4.94
2022-12-13T14:48:55.041Z,4.75
2022-12-13T14:51:38.108Z,4.89
2022-12-13T14:54:08.003Z,4.72
2022-12-13T14:56:35.260Z,4.73
2022-12-13T14:59:04.890Z,4.64
2022-12-13T15:01:36.799Z,4.72
2022-12-13T15:04:38.271Z,4.66
2022-12-13T15:07:20.495Z,4.51
2022-12-13T15:09:53.014Z,4.18
2022-12-13T15:12:25.414Z,4.36
2022-12-13T15:15:08.521Z,4.21
2022-12-13T15:17:38.886Z,3.98
2022-12-13T15:20:30.818Z,4.01
2022-12-13T15:23:07.201Z,3.62
2022-12-13T15:25:35.792Z,3.44
2022-12-13T15:28:04.061Z,3.58
2022-12-13T15:30:34.909Z,3.67
2022-12-13T15:33:08.034Z,3.58
2022-12-13T15:35:39.104Z,3.40
2022-12-13T15:38:28.670Z,3.40
2022-12-13T15:40:57.120Z,3.55
2022-12-13T15:43:35.628Z,3.39
2022-12-13T15:46:02.769Z,3.48
2022-12-13T15:48:35.114Z,3.48
2022-12-13T15:51:29.619Z,3.23
2022-12-13T15:54:02.165Z,3.48
2022-12-13T15:56:35.574Z,3.44
2022-12-13T15:59:04.524Z,3.04
2022-12-13T16:01:36.758Z,3.06
2022-12-13T16:04:05.133Z,3.30
2022-12-13T16:06:33.634Z,3.32
2022-12-13T16:09:04.098Z,3.33
2022-12-13T16:11:35.129Z,3.35
2022-12-13T16:14:35.038Z,3.28
2022-12-13T16:17:22.794Z,3.14
2022-12-13T16:19:49.733Z,3.05
2022-12-13T16:22:17.754Z,3.24
2022-12-13T16:24:44.476Z,3.18
2022-12-13T16:27:11.254Z,3.18
2022-12-13T16:29:38.206Z,2.96
2022-12-13T16:32:08.342Z,3.04
2022-12-13T16:34:36.548Z,3.03
2022-12-13T16:37:08.792Z,3.08
2022-12-13T16:39:50.633Z,2.95
2022-12-13T16:42:18.879Z,2.96
2022-12-13T16:44:47.290Z,2.76
2022-12-13T16:47:24.337Z,2.57
2022-12-13T16:49:56.732Z,2.56
2022-12-13T16:52:23.478Z,2.77
2022-12-13T16:54:51.213Z,2.89
2022-12-13T16:57:17.838Z,2.77
2022-12-13T16:59:44.542Z,2.60
2022-12-13T17:02:17.896Z,2.73
2022-12-13T17:04:44.752Z,2.65
2022-12-13T17:07:11.412Z,2.73
2022-12-13T17:09:38.877Z,2.58
2022-12-13T17:12:06.007Z,2.62
2022-12-13T17:14:32.570Z,2.48
2022-12-13T17:16:59.421Z,2.51
2022-12-13T17:19:26.155Z,2.28
2022-12-13T17:21:52.748Z,2.40
2022-12-13T17:24:19.372Z,2.23
2022-12-13T17:26:54.629Z,1.91
2022-12-13T17:29:22.791Z,1.98
2022-12-13T17:31:49.420Z,2.07
2022-12-13T17:34:16.064Z,1.92
2022-12-13T17:36:43.718Z,2.03
2022-12-13T17:39:12.195Z,2.13
2022-12-13T17:41:40.346Z,2.14
2022-12-13T17:44:07.078Z,1.93
2022-12-13T17:46:34.910Z,1.89
2022-12-13T17:49:01.685Z,1.80
2022-12-13T17:51:28.886Z,2.08
2022-12-13T17:53:55.578Z,1.84
2022-12-13T17:56:22.273Z,1.79
2022-12-13T17:58:48.884Z,1.91
2022-12-13T18:01:21.547Z,1.92
2022-12-13T18:03:49.196Z,1.91
2022-12-13T18:06:16.267Z,1.84
2022-12-13T18:08:44.599Z,1.89
2022-12-13T18:13:59.870Z,1.82
2022-12-13T18:16:35.890Z,2.06
2022-12-13T18:19:08.773Z,2.07
2022-12-13T18:21:36.851Z,1.85
2022-12-13T18:24:06.365Z,2.10
2022-12-13T18:26:33.921Z,2.03
2022-12-13T18:29:00.796Z,1.69
2022-12-13T18:31:28.183Z,1.76
2022-12-13T18:33:55.101Z,1.87
2022-12-13T18:36:23.852Z,2.15
2022-12-13T18:38:51.511Z,2.10
2022-12-13T18:41:21.699Z,2.07
2022-12-13T18:43:48.862Z,1.87
2022-12-13T18:46:16.250Z,1.95
2022-12-13T18:48:43.276Z,2.04
2022-12-13T18:51:10.823Z,1.91
2022-12-13T18:53:39.173Z,2.16
2022-12-13T18:56:18.264Z,2.11
2022-12-13T18:58:49.896Z,2.08
2022-12-13T19:01:17.807Z,1.94
2022-12-13T19:03:46.570Z,2.03
2022-12-13T19:06:28.427Z,1.98
2022-12-13T19:08:56.741Z,1.74
2022-12-13T19:11:26.000Z,1.59
2022-12-13T19:13:53.029Z,1.75
2022-12-13T19:16:22.553Z,1.93
2022-12-13T19:18:49.333Z,1.95
2022-12-13T19:21:19.142Z,1.91
2022-12-13T19:23:50.030Z,1.66
2022-12-13T19:26:22.059Z,1.60
2022-12-13T19:28:49.025Z,1.81
2022-12-13T19:31:16.016Z,1.69
2022-12-13T19:33:43.065Z,1.68
2022-12-13T19:36:10.804Z,1.69
2022-12-13T19:38:38.987Z,1.56
2022-12-13T19:41:10.462Z,1.76
2022-12-13T19:43:37.401Z,1.50
2022-12-13T19:46:06.757Z,1.53
2022-12-13T19:48:34.381Z,1.72
2022-12-13T19:51:02.481Z,1.72
2022-12-13T19:53:30.729Z,1.64
2022-12-13T19:55:57.913Z,1.66
2022-12-13T19:58:26.272Z,1.67
2022-12-13T20:00:53.979Z,1.68
2022-12-13T20:03:20.703Z,1.44
2022-12-13T20:05:59.955Z,1.58
2022-12-13T20:08:26.690Z,1.49
2022-12-13T20:10:58.196Z,1.40
2022-12-13T20:13:25.550Z,1.37
2022-12-13T20:15:52.640Z,1.55
2022-12-13T20:18:19.581Z,1.40
2022-12-13T20:21:10.692Z,1.51
2022-12-13T20:23:34.566Z,1.21
2022-12-13T20:26:06.481Z,1.46
2022-12-13T20:28:33.129Z,1.08
2022-12-13T20:31:10.289Z,1.44
2022-12-13T20:33:38.460Z,1.42
2022-12-13T20:36:24.129Z,1.37
2022-12-13T20:38:52.993Z,1.08
2022-12-13T20:41:19.628Z,1.11
2022-12-13T20:43:48.442Z,1.04
2022-12-13T20:46:16.247Z,1.36
2022-12-13T20:48:45.847Z,1.38
2022-12-13T20:51:16.098Z,1.13
2022-12-13T20:53:45.598Z,0.99
2022-12-13T20:56:15.322Z,1.19
2022-12-13T20:58:43.128Z,1.29
2022-12-13T21:01:15.721Z,1.22
2022-12-13T21:03:44.603Z,1.30
2022-12-13T21:06:11.998Z,1.08
2022-12-13T21:09:02.693Z,0.96
2022-12-13T21:11:38.656Z,1.19
2022-12-13T21:14:26.577Z,1.19
2022-12-13T21:16:57.238Z,1.13
2022-12-13T21:19:33.128Z,1.16
2022-12-13T21:22:02.779Z,1.08
2022-12-13T21:24:29.553Z,1.17
2022-12-13T21:26:56.737Z,1.13
2022-12-13T21:29:23.527Z,1.03
2022-12-13T21:31:50.535Z,1.09
2022-12-13T21:34:18.805Z,1.08
2022-12-13T21:36:47.716Z,0.92
2022-12-13T21:39:17.441Z,0.96
2022-12-13T21:41:45.035Z,1.12
2022-12-13T21:44:13.657Z,1.08
2022-12-13T21:49:29.029Z,1.01
2022-12-13T21:51:55.933Z,0.77
2022-12-13T21:54:23.072Z,0.80
2022-12-13T21:57:09.374Z,1.00
2022-12-13T21:59:36.078Z,0.71
2022-12-13T22:02:20.524Z,0.67
2022-12-13T22:04:55.683Z,0.99
2022-12-13T22:07:32.897Z,0.97
2022-12-13T22:10:00.999Z,0.94
2022-12-13T22:12:36.420Z,0.94
2022-12-13T22:15:05.590Z,0.73
2022-12-13T22:17:35.688Z,0.85
2022-12-13T22:20:08.559Z,0.89
2022-12-13T22:22:35.235Z,0.70
2022-12-13T22:25:01.833Z,0.79
2022-12-13T22:27:28.590Z,0.90
2022-12-13T22:29:57.627Z,0.79
2022-12-13T22:32:26.401Z,0.79
2022-12-13T22:34:53.379Z,0.86
2022-12-13T22:37:20.389Z,0.89
2022-12-13T22:39:47.057Z,0.56
2022-12-13T22:42:13.787Z,0.58
2022-12-13T22:44:40.536Z,0.77
2022-12-13T22:47:07.133Z,0.90
2022-12-13T22:49:33.759Z,0.77
2022-12-13T22:52:00.447Z,1.04
2022-12-13T22:54:27.174Z,0.87
2022-12-13T22:56:54.118Z,1.05
2022-12-13T22:59:22.323Z,0.73
2022-12-13T23:01:48.965Z,0.99
2022-12-13T23:04:15.630Z,0.85
2022-12-13T23:06:42.424Z,1.16
2022-12-13T23:09:13.667Z,0.99
2022-12-13T23:11:59.255Z,1.30
2022-12-13T23:14:33.198Z,1.38
2022-12-13T23:17:01.072Z,1.05
2022-12-13T23:19:49.744Z,1.37
2022-12-13T23:22:16.968Z,1.31
2022-12-13T23:24:43.818Z,1.37
2022-12-13T23:27:10.525Z,1.29
2022-12-13T23:29:37.237Z,1.48
2022-12-13T23:32:04.453Z,1.44
2022-12-13T23:34:31.444Z,1.48
2022-12-13T23:36:58.041Z,1.39
2022-12-13T23:39:24.623Z,1.43
2022-12-13T23:41:51.263Z,1.64
2022-12-13T23:44:18.096Z,1.72
2022-12-13T23:46:48.120Z,1.74
2022-12-13T23:49:15.633Z,1.87
2022-12-13T23:51:42.763Z,1.76
2022-12-13T23:54:14.651Z,1.78
2022-12-13T23:56:41.413Z,1.83
2022-12-13T23:59:08.044Z,1.97
